Time;durP1;ratioP1;P1;durP2;ratioP2;P2;SDS_P1;SDS_P2;PMS_P1;PMS_P2;Temp;Humidity;BMP_temperature;BMP_pressure;BME280_temperature;BME280_humidity;BME280_pressure;Samples;Min_cycle;Max_cycle;Signal;HPM_P1;HPM_P2
2022/05/06 00:01:51;;;;;;;;;;;13.20;99.90;;;;;;5065277;28;19935;-70
2022/05/06 00:04:18;;;;;;;;;;;13.20;99.90;;;;;;5065221;28;19920;-70
2022/05/06 00:06:45;;;;;;;;;;;13.20;99.90;;;;;;5064969;28;19921;-70
2022/05/06 00:09:11;;;;;;;;;;;13.20;99.90;;;;;;5064643;28;19928;-70
2022/05/06 00:11:38;;;;;;;;;;;13.10;99.90;;;;;;5064767;28;19925;-70
2022/05/06 00:14:06;;;;;;;;;;;13.10;99.90;;;;;;5065263;28;19929;-70
2022/05/06 00:16:32;;;;;;;;;;;13.10;99.90;;;;;;5064689;28;19927;-70
2022/05/06 00:18:59;;;;;;;;;;;13.10;99.90;;;;;;5065032;28;19924;-70
2022/05/06 00:21:25;;;;;;;;;;;13.10;99.90;;;;;;5064908;28;19921;-70
2022/05/06 00:23:52;;;;;;;;;;;13.00;99.90;;;;;;5064834;28;19921;-70
2022/05/06 00:26:19;;;;;;;;;;;13.00;99.90;;;;;;5064489;28;19921;-70
2022/05/06 00:28:45;;;;;;;;;;;13.00;99.90;;;;;;5064987;28;19927;-70
2022/05/06 00:31:13;;;;;;;;;;;13.00;99.90;;;;;;5064924;28;20212;-70
2022/05/06 00:33:40;;;;;;;;;;;13.00;99.90;;;;;;5064842;28;19920;-70
2022/05/06 00:36:07;;;;;;;;;;;13.00;99.90;;;;;;5064605;28;19920;-70
2022/05/06 00:38:33;;;;;;;;;;;13.00;99.90;;;;;;5064639;28;19983;-70
2022/05/06 00:41:00;;;;;;;;;;;13.00;99.90;;;;;;5064520;28;19921;-70
2022/05/06 00:43:27;;;;;;;;;;;13.00;99.90;;;;;;5064517;28;19920;-70
2022/05/06 00:45:54;;;;;;;;;;;13.00;99.90;;;;;;5064412;28;19943;-70
2022/05/06 00:48:24;;;;;;;;;;;13.00;99.90;;;;;;5064491;28;19921;-70
2022/05/06 00:50:50;;;;;;;;;;;13.00;99.90;;;;;;5064467;28;19921;-70
2022/05/06 00:53:18;;;;;;;;;;;13.00;99.90;;;;;;5064289;28;19927;-70
2022/05/06 00:55:45;;;;;;;;;;;12.90;99.90;;;;;;5063862;28;19927;-70
2022/05/06 00:58:12;;;;;;;;;;;12.90;99.90;;;;;;5064281;28;20168;-70
2022/05/06 01:00:38;;;;;;;;;;;12.90;99.90;;;;;;5063916;28;19920;-70
2022/05/06 01:03:05;;;;;;;;;;;12.90;99.90;;;;;;5063761;28;19984;-70
2022/05/06 01:05:33;;;;;;;;;;;12.80;99.90;;;;;;5063643;28;20112;-70
2022/05/06 01:07:59;;;;;;;;;;;12.80;99.90;;;;;;5062964;28;19921;-70
2022/05/06 01:10:26;;;;;;;;;;;12.80;99.90;;;;;;5063248;28;20359;-70
2022/05/06 01:12:53;;;;;;;;;;;12.80;99.90;;;;;;5064019;28;19921;-70
2022/05/06 01:15:20;;;;;;;;;;;12.80;99.90;;;;;;5063606;28;19928;-70
2022/05/06 01:17:47;;;;;;;;;;;12.80;99.90;;;;;;5063777;28;19924;-70
2022/05/06 01:20:16;;;;;;;;;;;12.70;99.90;;;;;;5063681;28;20247;-70
2022/05/06 01:22:44;;;;;;;;;;;12.80;99.90;;;;;;5063580;28;19942;-70
2022/05/06 01:25:11;;;;;;;;;;;12.70;99.90;;;;;;5063298;28;19959;-70
2022/05/06 01:27:40;;;;;;;;;;;12.80;99.90;;;;;;5063856;28;19928;-70
2022/05/06 01:30:08;;;;;;;;;;;12.70;99.90;;;;;;5063422;28;19948;-70
2022/05/06 01:32:35;;;;;;;;;;;12.70;99.90;;;;;;5063444;28;19921;-70
2022/05/06 01:35:03;;;;;;;;;;;12.60;99.90;;;;;;5063456;28;19921;-70
2022/05/06 01:37:31;;;;;;;;;;;12.60;99.90;;;;;;5063315;28;19952;-70
2022/05/06 01:40:00;;;;;;;;;;;12.60;99.90;;;;;;5063526;28;19927;-70
2022/05/06 01:42:28;;;;;;;;;;;12.60;99.90;;;;;;5063658;28;19921;-70
2022/05/06 01:44:56;;;;;;;;;;;12.50;99.90;;;;;;5063213;28;19927;-70
2022/05/06 01:47:26;;;;;;;;;;;12.50;99.90;;;;;;5062956;28;19927;-70
2022/05/06 01:49:54;;;;;;;;;;;12.40;99.90;;;;;;5062067;28;19927;-70
2022/05/06 01:52:21;;;;;;;;;;;12.40;99.90;;;;;;5063379;28;20220;-70
2022/05/06 01:54:48;;;;;;;;;;;12.50;99.90;;;;;;5063285;28;19929;-70
2022/05/06 01:57:16;;;;;;;;;;;12.40;99.90;;;;;;5063094;28;19920;-70
2022/05/06 01:59:42;;;;;;;;;;;12.40;99.90;;;;;;5063546;28;20113;-70
2022/05/06 02:02:09;;;;;;;;;;;12.40;99.90;;;;;;5063042;28;19921;-70
2022/05/06 02:07:20;;;;;;;;;;;12.30;99.90;;;;;;5063058;28;19954;-70
2022/05/06 02:09:46;;;;;;;;;;;12.30;99.90;;;;;;5062562;28;19920;-70
2022/05/06 02:12:13;;;;;;;;;;;12.20;99.90;;;;;;5063005;28;19928;-70
2022/05/06 02:14:41;;;;;;;;;;;12.20;99.90;;;;;;5062742;28;19921;-70
2022/05/06 02:17:07;;;;;;;;;;;12.20;99.90;;;;;;5062841;28;19925;-70
2022/05/06 02:19:34;;;;;;;;;;;12.20;99.90;;;;;;5062790;28;19921;-70
2022/05/06 02:22:01;;;;;;;;;;;12.20;99.90;;;;;;5063074;28;19921;-69
2022/05/06 02:24:28;;;;;;;;;;;12.30;99.90;;;;;;5062717;28;19921;-69
2022/05/06 02:26:54;;;;;;;;;;;12.20;99.90;;;;;;5062715;28;19927;-70
2022/05/06 02:29:21;;;;;;;;;;;12.20;99.90;;;;;;5062848;28;19935;-70
2022/05/06 02:34:34;;;;;;;;;;;12.20;99.90;;;;;;5062975;28;19992;-70
2022/05/06 02:37:00;;;;;;;;;;;12.20;99.90;;;;;;5062745;28;20289;-70
2022/05/06 02:39:27;;;;;;;;;;;12.20;99.90;;;;;;5062816;28;19921;-70
2022/05/06 02:41:54;;;;;;;;;;;12.20;99.90;;;;;;5063015;28;19921;-70
2022/05/06 02:44:21;;;;;;;;;;;12.20;99.90;;;;;;5062625;28;19927;-70
2022/05/06 02:46:49;;;;;;;;;;;12.20;99.90;;;;;;5062657;28;19928;-70
2022/05/06 02:49:16;;;;;;;;;;;12.20;99.90;;;;;;5061993;28;19992;-70
2022/05/06 02:51:42;;;;;;;;;;;12.10;99.90;;;;;;5062809;28;19983;-70
2022/05/06 02:54:09;;;;;;;;;;;12.10;99.90;;;;;;5062456;28;19927;-70
2022/05/06 02:56:35;;;;;;;;;;;12.10;99.90;;;;;;5062612;28;19932;-70
2022/05/06 02:59:04;;;;;;;;;;;12.00;99.90;;;;;;5062659;28;19921;-70
2022/05/06 03:01:30;;;;;;;;;;;12.10;99.90;;;;;;5062676;28;19921;-70
2022/05/06 03:03:58;;;;;;;;;;;12.00;99.90;;;;;;5062245;28;19935;-70
2022/05/06 03:06:25;;;;;;;;;;;12.00;99.90;;;;;;5062146;28;20213;-70
2022/05/06 03:08:51;;;;;;;;;;;12.00;99.90;;;;;;5062405;28;20140;-70
2022/05/06 03:11:18;;;;;;;;;;;12.00;99.90;;;;;;5062425;28;20132;-70
2022/05/06 03:13:45;;;;;;;;;;;12.00;99.90;;;;;;5062136;28;19928;-70
2022/05/06 03:16:11;;;;;;;;;;;12.00;99.90;;;;;;5062220;28;19925;-70
2022/05/06 03:18:38;;;;;;;;;;;12.00;99.90;;;;;;5062495;28;19928;-70
2022/05/06 03:21:06;;;;;;;;;;;11.90;99.90;;;;;;5062493;28;19921;-70
2022/05/06 03:23:33;;;;;;;;;;;12.00;99.90;;;;;;5064877;28;19921;-70
2022/05/06 03:25:59;;;;;;;;;;;12.00;99.90;;;;;;5065263;28;19921;-70
2022/05/06 03:28:26;;;;;;;;;;;12.00;99.90;;;;;;5066248;28;20016;-70
2022/05/06 03:30:52;;;;;;;;;;;12.00;99.90;;;;;;5065794;28;19927;-70
2022/05/06 03:33:19;;;;;;;;;;;11.90;99.90;;;;;;5065931;28;19920;-70
2022/05/06 03:35:46;;;;;;;;;;;12.00;99.90;;;;;;5065222;28;20193;-69
2022/05/06 03:38:14;;;;;;;;;;;11.90;99.90;;;;;;5065737;28;19943;-70
2022/05/06 03:40:41;;;;;;;;;;;11.90;99.90;;;;;;5065646;28;19931;-70
2022/05/06 03:43:07;;;;;;;;;;;11.80;99.90;;;;;;5065955;28;19983;-70
2022/05/06 03:45:36;;;;;;;;;;;11.80;99.90;;;;;;5065044;28;20255;-70
2022/05/06 03:48:02;;;;;;;;;;;11.90;99.90;;;;;;5065183;28;19920;-70
2022/05/06 03:53:16;;;;;;;;;;;11.80;99.90;;;;;;5065698;28;19924;-70
2022/05/06 03:55:44;;;;;;;;;;;11.80;99.90;;;;;;5065024;28;20139;-70
2022/05/06 03:58:10;;;;;;;;;;;11.80;99.90;;;;;;5065375;28;19921;-70
2022/05/06 04:00:37;;;;;;;;;;;11.70;99.90;;;;;;5065287;28;19924;-70
2022/05/06 04:03:03;;;;;;;;;;;11.70;99.90;;;;;;5065083;28;19921;-70
2022/05/06 04:05:30;;;;;;;;;;;11.70;99.90;;;;;;5065175;28;19982;-70
2022/05/06 04:07:59;;;;;;;;;;;11.70;99.90;;;;;;5065365;28;19921;-70
2022/05/06 04:10:27;;;;;;;;;;;11.60;99.90;;;;;;5064824;28;19929;-70
2022/05/06 04:12:53;;;;;;;;;;;11.60;99.90;;;;;;5125982;22;19927;-65
2022/05/06 04:15:21;;;;;;;;;;;11.60;99.90;;;;;;5105059;28;19966;-65
2022/05/06 04:17:47;;;;;;;;;;;11.60;99.90;;;;;;5105066;28;19927;-66
2022/05/06 04:25:43;;;;;;;;;;;11.50;99.90;;;;;;5104943;28;19968;-67
2022/05/06 04:28:10;;;;;;;;;;;11.50;99.90;;;;;;5104813;28;19920;-67
2022/05/06 04:30:37;;;;;;;;;;;11.60;99.90;;;;;;5105123;28;19924;-67
2022/05/06 04:33:04;;;;;;;;;;;11.50;99.90;;;;;;5096316;28;19920;-66
2022/05/06 04:35:33;;;;;;;;;;;11.60;99.90;;;;;;5104825;28;20150;-67
2022/05/06 04:37:59;;;;;;;;;;;11.60;99.90;;;;;;5085145;28;19956;-66
2022/05/06 04:40:26;;;;;;;;;;;11.70;99.90;;;;;;5085039;28;19920;-67
2022/05/06 04:42:54;;;;;;;;;;;11.70;99.90;;;;;;5085035;28;19927;-66
2022/05/06 04:45:21;;;;;;;;;;;11.70;99.90;;;;;;5087140;28;20557;-67
2022/05/06 04:47:49;;;;;;;;;;;11.60;99.90;;;;;;5104249;28;19920;-66
2022/05/06 04:50:16;;;;;;;;;;;11.60;99.90;;;;;;5104501;28;19935;-66
2022/05/06 04:52:42;;;;;;;;;;;11.70;99.90;;;;;;5103947;28;19919;-67
2022/05/06 04:55:09;;;;;;;;;;;11.60;99.90;;;;;;5104148;28;19920;-68
2022/05/06 04:57:36;;;;;;;;;;;11.60;99.90;;;;;;5104995;28;19928;-66
2022/05/06 05:00:05;;;;;;;;;;;11.60;99.90;;;;;;5104782;28;20215;-67
2022/05/06 05:02:32;;;;;;;;;;;11.60;99.90;;;;;;5104482;28;19920;-67
2022/05/06 05:04:59;;;;;;;;;;;11.60;99.90;;;;;;5104760;28;19926;-66
2022/05/06 05:07:26;;;;;;;;;;;11.60;99.90;;;;;;5104622;28;19920;-67
2022/05/06 05:09:53;;;;;;;;;;;11.60;99.90;;;;;;5104409;28;19920;-66
2022/05/06 05:12:19;;;;;;;;;;;11.70;99.90;;;;;;5103532;28;20221;-68
2022/05/06 05:14:46;;;;;;;;;;;11.70;99.90;;;;;;5102229;28;19926;-67
2022/05/06 05:17:14;;;;;;;;;;;11.70;99.90;;;;;;5102737;28;19926;-67
2022/05/06 05:19:40;;;;;;;;;;;11.70;99.90;;;;;;5104109;28;19927;-65
2022/05/06 05:22:07;;;;;;;;;;;11.70;99.90;;;;;;5103866;28;19920;-68
2022/05/06 05:24:34;;;;;;;;;;;11.70;99.90;;;;;;5103079;28;20231;-68
2022/05/06 05:27:00;;;;;;;;;;;11.70;99.90;;;;;;5103168;28;19920;-67
2022/05/06 05:29:27;;;;;;;;;;;11.70;99.90;;;;;;5103951;28;19926;-69
2022/05/06 05:31:54;;;;;;;;;;;11.80;99.90;;;;;;5103441;28;19935;-67
2022/05/06 05:34:22;;;;;;;;;;;11.80;99.90;;;;;;5102680;28;19920;-68
2022/05/06 05:36:48;;;;;;;;;;;11.80;99.90;;;;;;5103526;28;19991;-65
2022/05/06 05:39:15;;;;;;;;;;;11.80;99.90;;;;;;5104294;28;19954;-67
2022/05/06 05:41:41;;;;;;;;;;;11.80;99.90;;;;;;5103407;28;20101;-67
2022/05/06 05:49:38;;;;;;;;;;;11.80;99.90;;;;;;5103820;28;19979;-67
2022/05/06 05:52:05;;;;;;;;;;;11.90;99.90;;;;;;5102719;28;19920;-67
2022/05/06 05:54:32;;;;;;;;;;;11.80;99.90;;;;;;5103184;28;19926;-67
2022/05/06 05:56:59;;;;;;;;;;;11.70;99.90;;;;;;5103121;28;19988;-66
2022/05/06 05:59:25;;;;;;;;;;;11.70;99.90;;;;;;5103383;28;19920;-66
2022/05/06 06:01:52;;;;;;;;;;;11.70;99.90;;;;;;5103204;28;20325;-66
2022/05/06 06:04:18;;;;;;;;;;;11.70;99.90;;;;;;5103612;28;19920;-65
2022/05/06 06:06:46;;;;;;;;;;;11.70;99.90;;;;;;5103167;28;19926;-65
2022/05/06 06:09:13;;;;;;;;;;;11.70;99.90;;;;;;5103607;28;19920;-64
2022/05/06 06:11:40;;;;;;;;;;;11.80;99.90;;;;;;5103089;28;19983;-65
2022/05/06 06:14:06;;;;;;;;;;;11.70;99.90;;;;;;5103420;28;19988;-67
2022/05/06 06:16:33;;;;;;;;;;;11.70;99.90;;;;;;5102630;28;19920;-66
2022/05/06 06:18:59;;;;;;;;;;;11.80;99.90;;;;;;5103550;28;19920;-66
2022/05/06 06:21:26;;;;;;;;;;;11.80;99.90;;;;;;5103183;28;20274;-66
2022/05/06 06:23:54;;;;;;;;;;;11.90;99.90;;;;;;5103122;28;19926;-67
2022/05/06 06:26:21;;;;;;;;;;;11.90;99.90;;;;;;5102773;28;19920;-68
2022/05/06 06:28:48;;;;;;;;;;;12.00;99.90;;;;;;5102885;28;19920;-67
2022/05/06 06:31:14;;;;;;;;;;;12.10;99.90;;;;;;5103142;28;19920;-67
2022/05/06 06:33:41;;;;;;;;;;;12.10;99.90;;;;;;5103231;28;20122;-68
2022/05/06 06:36:08;;;;;;;;;;;12.20;99.90;;;;;;5103066;28;19927;-67
2022/05/06 06:38:35;;;;;;;;;;;12.20;99.90;;;;;;5102963;28;19952;-67
2022/05/06 06:41:03;;;;;;;;;;;12.30;99.90;;;;;;5102113;28;19926;-68
2022/05/06 06:43:29;;;;;;;;;;;12.30;99.90;;;;;;5102906;28;19957;-67
2022/05/06 06:45:57;;;;;;;;;;;12.40;99.90;;;;;;5102920;28;19926;-66
2022/05/06 06:48:24;;;;;;;;;;;12.50;99.90;;;;;;5102319;28;19965;-67
2022/05/06 06:50:51;;;;;;;;;;;12.50;99.90;;;;;;5102306;28;19927;-67
2022/05/06 06:53:17;;;;;;;;;;;12.50;99.90;;;;;;5102898;28;19920;-69
2022/05/06 06:55:44;;;;;;;;;;;12.50;99.90;;;;;;5102450;28;19928;-67
2022/05/06 06:58:12;;;;;;;;;;;12.50;99.90;;;;;;5106796;28;20122;-67
2022/05/06 07:00:38;;;;;;;;;;;12.50;99.90;;;;;;5107796;28;19920;-66
2022/05/06 07:03:05;;;;;;;;;;;12.50;99.90;;;;;;5106634;28;19921;-67
2022/05/06 07:05:31;;;;;;;;;;;12.50;99.90;;;;;;5106216;28;19927;-70
2022/05/06 07:13:24;;;;;;;;;;;12.50;99.90;;;;;;5101969;28;19916;-67
2022/05/06 07:15:51;;;;;;;;;;;12.50;99.90;;;;;;5106065;28;19920;-67
2022/05/06 07:18:17;;;;;;;;;;;12.50;99.90;;;;;;5106283;28;19927;-66
2022/05/06 07:20:44;;;;;;;;;;;12.50;99.90;;;;;;5106418;28;19920;-69
2022/05/06 07:23:11;;;;;;;;;;;12.50;99.90;;;;;;5106220;28;19920;-66
2022/05/06 07:25:38;;;;;;;;;;;12.50;99.90;;;;;;5105903;28;19920;-66
2022/05/06 07:28:05;;;;;;;;;;;12.50;99.90;;;;;;5106181;28;20203;-68
2022/05/06 07:30:32;;;;;;;;;;;12.50;99.90;;;;;;5106348;28;19926;-67
2022/05/06 07:32:59;;;;;;;;;;;12.50;99.90;;;;;;5106098;28;19927;-67
2022/05/06 07:35:26;;;;;;;;;;;12.50;99.90;;;;;;5105721;28;19920;-67
2022/05/06 07:37:52;;;;;;;;;;;12.60;99.90;;;;;;5106081;28;20227;-66
2022/05/06 07:40:19;;;;;;;;;;;12.60;99.90;;;;;;5105533;28;20211;-67
2022/05/06 07:42:47;;;;;;;;;;;12.60;99.90;;;;;;5104811;28;19920;-67
2022/05/06 07:45:13;;;;;;;;;;;12.70;99.90;;;;;;5105673;28;19920;-72
2022/05/06 07:47:41;;;;;;;;;;;12.70;99.90;;;;;;5105515;28;20215;-67
2022/05/06 07:50:08;;;;;;;;;;;12.70;99.90;;;;;;5104986;28;19983;-67
2022/05/06 07:52:35;;;;;;;;;;;12.80;99.90;;;;;;5101828;28;19928;-70
2022/05/06 07:55:02;;;;;;;;;;;12.80;99.90;;;;;;5104134;28;19979;-68
2022/05/06 07:57:29;;;;;;;;;;;12.90;99.90;;;;;;5091853;28;19920;-67
2022/05/06 07:59:55;;;;;;;;;;;12.90;99.90;;;;;;5099736;28;19952;-67
2022/05/06 08:05:08;;;;;;;;;;;13.00;99.90;;;;;;5085594;28;20025;-69
2022/05/06 08:07:34;;;;;;;;;;;13.10;99.90;;;;;;5084910;28;19927;-68
2022/05/06 08:10:06;;;;;;;;;;;13.10;99.90;;;;;;5104259;28;20376;-68
2022/05/06 08:12:33;;;;;;;;;;;13.20;99.90;;;;;;5105745;28;19920;-68
2022/05/06 08:14:59;;;;;;;;;;;13.30;99.90;;;;;;5105928;28;19920;-69
2022/05/06 08:17:26;;;;;;;;;;;13.40;99.90;;;;;;5105601;28;19926;-69
2022/05/06 08:19:53;;;;;;;;;;;13.40;99.90;;;;;;5105740;28;19926;-68
2022/05/06 08:22:20;;;;;;;;;;;13.50;99.90;;;;;;5105118;28;20207;-68
2022/05/06 08:24:47;;;;;;;;;;;13.60;99.90;;;;;;5105120;28;19965;-68
2022/05/06 08:27:14;;;;;;;;;;;13.60;99.90;;;;;;5104455;28;19924;-68
2022/05/06 08:29:41;;;;;;;;;;;13.70;99.90;;;;;;5104757;28;19920;-69
2022/05/06 08:32:08;;;;;;;;;;;13.80;99.90;;;;;;5104838;28;19920;-68
2022/05/06 08:34:35;;;;;;;;;;;13.90;99.90;;;;;;5105374;28;19920;-69
2022/05/06 08:37:03;;;;;;;;;;;13.90;99.90;;;;;;5104867;28;19926;-69
2022/05/06 08:39:33;;;;;;;;;;;13.90;99.90;;;;;;5104489;28;20107;-68
2022/05/06 08:42:02;;;;;;;;;;;14.00;99.90;;;;;;5104310;28;19995;-70
2022/05/06 08:52:43;;;;;;;;;;;14.20;99.90;;;;;;5104382;28;19923;-68
2022/05/06 08:55:11;;;;;;;;;;;14.30;99.90;;;;;;5103878;28;19927;-68
2022/05/06 08:57:39;;;;;;;;;;;14.40;99.90;;;;;;5104003;28;19927;-68
2022/05/06 09:00:07;;;;;;;;;;;14.30;99.90;;;;;;5101391;28;20150;-68
2022/05/06 09:02:33;;;;;;;;;;;14.30;99.90;;;;;;5104261;28;19928;-68
2022/05/06 09:05:00;;;;;;;;;;;14.30;99.90;;;;;;5103841;28;20123;-68
2022/05/06 09:07:27;;;;;;;;;;;14.40;99.90;;;;;;5103794;28;19946;-68
2022/05/06 09:10:10;;;;;;;;;;;14.50;99.90;;;;;;5103506;28;19926;-68
2022/05/06 09:12:44;;;;;;;;;;;14.50;99.90;;;;;;5104223;28;19920;-69
2022/05/06 09:17:57;;;;;;;;;;;14.70;99.90;;;;;;5104494;28;19923;-68
2022/05/06 09:20:24;;;;;;;;;;;14.70;99.90;;;;;;5099123;28;20107;-69
2022/05/06 09:22:51;;;;;;;;;;;14.80;99.90;;;;;;5104247;28;19920;-69
2022/05/06 09:25:37;;;;;;;;;;;14.90;99.90;;;;;;5104427;28;19965;-68
2022/05/06 09:28:06;;;;;;;;;;;14.90;99.90;;;;;;5100802;28;20216;-68
2022/05/06 09:30:33;;;;;;;;;;;15.00;99.90;;;;;;5094498;28;19957;-68
2022/05/06 09:33:00;;;;;;;;;;;15.00;99.90;;;;;;5103100;28;19924;-70
2022/05/06 09:35:27;;;;;;;;;;;15.00;99.90;;;;;;5104167;28;19920;-69
2022/05/06 09:37:53;;;;;;;;;;;15.10;99.90;;;;;;5097288;28;19920;-69
2022/05/06 09:40:21;;;;;;;;;;;15.20;99.90;;;;;;5103666;28;19983;-69
2022/05/06 09:42:57;;;;;;;;;;;15.30;99.90;;;;;;5103221;28;19920;-68
2022/05/06 09:45:30;;;;;;;;;;;15.40;99.90;;;;;;5102984;28;19967;-70
2022/05/06 09:47:58;;;;;;;;;;;15.60;99.90;;;;;;5104198;28;19920;-68
2022/05/06 09:50:32;;;;;;;;;;;15.70;99.90;;;;;;5103880;28;19924;-68
2022/05/06 09:52:59;;;;;;;;;;;15.70;99.90;;;;;;5103821;28;19966;-68
2022/05/06 09:55:26;;;;;;;;;;;15.70;99.90;;;;;;5085876;28;19974;-68
2022/05/06 09:57:53;;;;;;;;;;;15.70;99.90;;;;;;5095154;28;19920;-68
2022/05/06 10:00:19;;;;;;;;;;;15.80;99.90;;;;;;5103875;28;19987;-68
2022/05/06 10:02:49;;;;;;;;;;;15.80;99.90;;;;;;5103351;28;20115;-68
2022/05/06 10:05:16;;;;;;;;;;;15.90;99.90;;;;;;5103667;28;19920;-69
2022/05/06 10:07:44;;;;;;;;;;;15.90;99.90;;;;;;5103433;28;20297;-68
2022/05/06 10:10:13;;;;;;;;;;;16.00;99.90;;;;;;5103496;28;19995;-69
2022/05/06 10:12:42;;;;;;;;;;;16.00;99.90;;;;;;5134915;22;19957;-71
2022/05/06 10:15:12;;;;;;;;;;;16.00;99.90;;;;;;5111613;28;19919;-72
2022/05/06 10:17:49;;;;;;;;;;;16.00;99.90;;;;;;5113892;28;19920;-69
2022/05/06 10:20:34;;;;;;;;;;;16.00;99.90;;;;;;5111708;28;19926;-69
2022/05/06 10:23:02;;;;;;;;;;;16.10;99.90;;;;;;5107983;28;19930;-69
2022/05/06 10:25:48;;;;;;;;;;;16.20;99.90;;;;;;5102931;28;20118;-69
2022/05/06 10:34:19;;;;;;;;;;;16.40;99.90;;;;;;5100127;28;19970;-71
2022/05/06 10:36:46;;;;;;;;;;;16.40;99.90;;;;;;5097975;28;19920;-71
2022/05/06 10:39:18;;;;;;;;;;;16.40;99.90;;;;;;5106328;28;19974;-70
2022/05/06 10:41:58;;;;;;;;;;;16.40;99.90;;;;;;5099464;28;19921;-70
2022/05/06 10:44:31;;;;;;;;;;;16.50;99.90;;;;;;5091380;28;19924;-70
2022/05/06 10:46:58;;;;;;;;;;;16.40;99.90;;;;;;5090614;28;20100;-70
2022/05/06 10:49:50;;;;;;;;;;;16.40;99.90;;;;;;5105380;28;19919;-70
2022/05/06 10:52:36;;;;;;;;;;;16.50;99.90;;;;;;5105908;28;19958;-70
2022/05/06 10:55:04;;;;;;;;;;;16.50;99.90;;;;;;5086244;28;20208;-70
2022/05/06 10:57:31;;;;;;;;;;;16.50;99.90;;;;;;5089183;28;19920;-70
2022/05/06 10:59:58;;;;;;;;;;;16.60;99.90;;;;;;5106315;28;20171;-72
2022/05/06 11:02:26;;;;;;;;;;;16.60;99.90;;;;;;5094343;28;20100;-71
2022/05/06 11:04:52;;;;;;;;;;;16.70;99.90;;;;;;5088007;28;19920;-70
2022/05/06 11:07:19;;;;;;;;;;;16.70;99.90;;;;;;5098810;28;19920;-70
2022/05/06 11:09:46;;;;;;;;;;;16.80;99.90;;;;;;5100007;28;19966;-70
2022/05/06 11:12:28;;;;;;;;;;;16.80;99.90;;;;;;5103548;28;19928;-69
2022/05/06 11:14:55;;;;;;;;;;;16.90;99.90;;;;;;5097131;28;19920;-68
2022/05/06 11:17:22;;;;;;;;;;;17.00;99.90;;;;;;5102036;28;19920;-69
2022/05/06 11:19:48;;;;;;;;;;;16.90;99.90;;;;;;5107348;28;19919;-69
2022/05/06 11:22:16;;;;;;;;;;;16.90;99.90;;;;;;5116439;28;19920;-70
2022/05/06 11:24:43;;;;;;;;;;;16.90;99.90;;;;;;5118776;28;19955;-69
2022/05/06 11:27:16;;;;;;;;;;;16.90;99.90;;;;;;5109459;28;20021;-69
2022/05/06 11:29:49;;;;;;;;;;;16.90;99.90;;;;;;5100596;28;19927;-69
2022/05/06 11:32:16;;;;;;;;;;;17.00;99.90;;;;;;5109573;28;20180;-69
2022/05/06 11:34:47;;;;;;;;;;;17.10;99.90;;;;;;5093856;28;19925;-70
2022/05/06 11:37:20;;;;;;;;;;;17.10;99.90;;;;;;5065492;28;19920;-70
2022/05/06 11:39:47;;;;;;;;;;;17.10;99.90;;;;;;5066028;28;19929;-70
2022/05/06 11:42:24;;;;;;;;;;;17.10;99.90;;;;;;5084609;28;21213;-69
2022/05/06 11:47:41;;;;;;;;;;;17.20;99.90;;;;;;5082463;28;19963;-70
2022/05/06 11:50:08;;;;;;;;;;;17.20;99.90;;;;;;5072997;28;19920;-69
2022/05/06 11:52:37;;;;;;;;;;;17.20;99.90;;;;;;5085500;28;20030;-70
2022/05/06 11:55:04;;;;;;;;;;;17.30;99.90;;;;;;5084810;28;19939;-69
2022/05/06 11:57:34;;;;;;;;;;;17.30;99.90;;;;;;5083708;28;19933;-70
2022/05/06 12:00:01;;;;;;;;;;;17.20;99.90;;;;;;5088062;28;19920;-70
2022/05/06 12:02:28;;;;;;;;;;;17.20;99.90;;;;;;5084149;28;19924;-70
2022/05/06 12:04:54;;;;;;;;;;;17.30;99.90;;;;;;5105733;28;19920;-70
2022/05/06 12:07:21;;;;;;;;;;;17.40;99.90;;;;;;5085355;28;19920;-70
2022/05/06 12:09:47;;;;;;;;;;;17.30;99.90;;;;;;5085899;28;19983;-70
2022/05/06 12:12:14;;;;;;;;;;;17.30;99.90;;;;;;5085245;28;19950;-71
2022/05/06 12:14:42;;;;;;;;;;;17.40;99.90;;;;;;5071322;28;19920;-71
2022/05/06 12:17:11;;;;;;;;;;;17.40;99.90;;;;;;5083849;28;20207;-70
2022/05/06 12:19:38;;;;;;;;;;;17.30;99.90;;;;;;5065488;28;19924;-70
2022/05/06 12:22:06;;;;;;;;;;;17.20;99.90;;;;;;5065413;28;19927;-71
2022/05/06 12:24:39;;;;;;;;;;;17.30;99.90;;;;;;5078355;28;19927;-71
2022/05/06 12:27:06;;;;;;;;;;;17.30;99.90;;;;;;5068767;28;19964;-70
2022/05/06 12:29:36;;;;;;;;;;;17.40;99.90;;;;;;5082797;28;19920;-72
2022/05/06 12:32:05;;;;;;;;;;;17.60;99.90;;;;;;5085283;28;19928;-70
2022/05/06 12:34:31;;;;;;;;;;;17.70;99.90;;;;;;5085178;28;19922;-71
2022/05/06 12:37:11;;;;;;;;;;;17.80;99.90;;;;;;5083972;28;20279;-70
2022/05/06 12:39:41;;;;;;;;;;;17.80;99.90;;;;;;5077263;28;19921;-70
2022/05/06 12:42:15;;;;;;;;;;;17.80;99.90;;;;;;5080130;28;19928;-70
2022/05/06 12:44:41;;;;;;;;;;;17.80;99.90;;;;;;5086998;28;19921;-70
2022/05/06 12:49:39;;;;;;;;;;;17.70;99.90;;;;;;5083722;28;19959;-70
2022/05/06 12:50:05;;;;;;;;;;;17.80;99.90;;;;;;5077950;28;19921;-70
2022/05/06 12:52:32;;;;;;;;;;;17.80;99.90;;;;;;5077682;28;19916;-70
2022/05/06 12:54:59;;;;;;;;;;;17.80;99.90;;;;;;5081994;28;19974;-71
2022/05/06 12:57:25;;;;;;;;;;;17.80;99.90;;;;;;5064235;28;20302;-70
2022/05/06 12:59:52;;;;;;;;;;;17.80;99.90;;;;;;5064984;28;19928;-70
2022/05/06 13:02:20;;;;;;;;;;;17.80;99.90;;;;;;5071500;28;19921;-70
2022/05/06 13:04:46;;;;;;;;;;;17.80;99.90;;;;;;5071508;28;20215;-70
2022/05/06 13:07:15;;;;;;;;;;;17.80;99.90;;;;;;5081796;28;19920;-68
2022/05/06 13:09:41;;;;;;;;;;;17.90;99.90;;;;;;5072946;28;19921;-69
2022/05/06 13:12:09;;;;;;;;;;;17.90;99.90;;;;;;5068438;28;19979;-69
2022/05/06 13:14:36;;;;;;;;;;;17.90;99.90;;;;;;5084672;28;19920;-69
2022/05/06 13:17:02;;;;;;;;;;;17.90;99.90;;;;;;5083831;28;19920;-69
2022/05/06 13:19:30;;;;;;;;;;;17.80;99.90;;;;;;5067901;28;19927;-69
2022/05/06 13:21:58;;;;;;;;;;;17.80;99.90;;;;;;5063373;28;19927;-70
2022/05/06 13:24:24;;;;;;;;;;;17.90;99.90;;;;;;5064406;28;19943;-73
2022/05/06 13:26:51;;;;;;;;;;;17.90;99.90;;;;;;5063164;28;19927;-69
2022/05/06 13:29:17;;;;;;;;;;;18.00;99.90;;;;;;5064391;28;19921;-69
2022/05/06 13:31:44;;;;;;;;;;;18.00;99.90;;;;;;5064247;28;19936;-70
2022/05/06 13:34:11;;;;;;;;;;;18.00;99.90;;;;;;5083087;28;19951;-70
2022/05/06 13:36:39;;;;;;;;;;;17.90;99.90;;;;;;5083345;28;19926;-69
2022/05/06 13:39:06;;;;;;;;;;;17.80;99.90;;;;;;5075301;28;19920;-70
2022/05/06 13:41:32;;;;;;;;;;;17.80;99.90;;;;;;5063900;28;20009;-70
2022/05/06 13:43:59;;;;;;;;;;;17.80;99.90;;;;;;5067064;28;20216;-70
2022/05/06 13:46:27;;;;;;;;;;;17.70;99.90;;;;;;5079647;28;19920;-70
2022/05/06 13:48:54;;;;;;;;;;;17.70;99.90;;;;;;5083238;28;19987;-69
2022/05/06 13:51:21;;;;;;;;;;;17.80;99.90;;;;;;5083563;28;20266;-70
2022/05/06 13:53:49;;;;;;;;;;;17.80;99.90;;;;;;5083963;28;19929;-69
2022/05/06 13:59:06;;;;;;;;;;;17.80;99.90;;;;;;5083679;28;19955;-70
2022/05/06 14:01:33;;;;;;;;;;;17.80;99.90;;;;;;5083856;28;19983;-69
2022/05/06 14:04:00;;;;;;;;;;;17.70;99.90;;;;;;5083899;28;19920;-70
2022/05/06 14:06:27;;;;;;;;;;;17.70;99.90;;;;;;5082319;28;20099;-69
2022/05/06 14:08:54;;;;;;;;;;;17.70;99.90;;;;;;5083679;28;19927;-69
2022/05/06 14:11:21;;;;;;;;;;;17.70;99.90;;;;;;5083315;28;19927;-69
2022/05/06 14:13:48;;;;;;;;;;;17.70;99.90;;;;;;5083805;28;19927;-69
2022/05/06 14:16:15;;;;;;;;;;;17.70;99.90;;;;;;5082498;28;20230;-69
2022/05/06 14:18:41;;;;;;;;;;;17.80;99.90;;;;;;5083688;28;19920;-69
2022/05/06 14:21:08;;;;;;;;;;;17.80;99.90;;;;;;5083475;28;20000;-70
2022/05/06 14:23:34;;;;;;;;;;;17.80;99.90;;;;;;5083696;28;19927;-69
2022/05/06 14:26:02;;;;;;;;;;;17.80;99.90;;;;;;5083156;28;19926;-69
2022/05/06 14:28:29;;;;;;;;;;;17.80;99.90;;;;;;5083743;28;19927;-70
2022/05/06 14:30:55;;;;;;;;;;;17.80;99.90;;;;;;5083703;28;19927;-69
2022/05/06 14:33:23;;;;;;;;;;;17.70;99.90;;;;;;5081171;28;19927;-70
2022/05/06 14:35:50;;;;;;;;;;;17.70;99.90;;;;;;5082634;28;19927;-70
2022/05/06 14:38:18;;;;;;;;;;;17.70;99.90;;;;;;5083319;28;19952;-70
2022/05/06 14:40:45;;;;;;;;;;;17.80;99.90;;;;;;5083604;28;20120;-71
2022/05/06 14:43:13;;;;;;;;;;;17.80;99.90;;;;;;5075039;28;19971;-69
2022/05/06 14:45:40;;;;;;;;;;;17.70;99.90;;;;;;5071342;28;19929;-69
2022/05/06 14:48:07;;;;;;;;;;;17.70;99.90;;;;;;5073425;28;19944;-72
2022/05/06 14:50:33;;;;;;;;;;;17.70;99.90;;;;;;5082959;28;19927;-72
2022/05/06 14:53:00;;;;;;;;;;;17.80;99.90;;;;;;5076535;28;19925;-71
2022/05/06 14:55:26;;;;;;;;;;;17.80;99.90;;;;;;5066050;28;20091;-69
2022/05/06 14:57:54;;;;;;;;;;;17.90;99.90;;;;;;5066082;28;19920;-68
2022/05/06 15:00:22;;;;;;;;;;;18.00;99.90;;;;;;5062909;28;19927;-70
2022/05/06 15:02:48;;;;;;;;;;;18.10;99.90;;;;;;5062584;28;19948;-70
2022/05/06 15:05:16;;;;;;;;;;;18.10;99.90;;;;;;5062152;28;19920;-71
2022/05/06 15:07:43;;;;;;;;;;;18.20;99.90;;;;;;5075841;28;19921;-67
2022/05/06 15:10:10;;;;;;;;;;;18.20;99.90;;;;;;5083177;28;20112;-69